Simcoe, Canada
Current Conditions -  °F | °C
As of 4:00 PM on Monday 24 Nov 2014 (Local Time) from CYHM Reporting Station
Broken Clouds Broken Clouds  
Wind Chill: 54°   Ceiling: 3800
Heat Index: 54°   Visibility: 15mi
Dew Point: 43°   Wind: 39mph
Humidity: 67%   Direction: 220°SW
Pressure: 29.28"   Gusts: 52mph
Location:  42.84°N, 80.31°W
Report Text: CYHM 242100Z 22034G45KT 15SM SCT025 BKN038 12/06 A2928 RMK CU3SC3 SLP916 DENSITY ALT 1300FT
Loading
Personal Weather Stations






























Interactive Weather Map New forecast layout! Learn more

10-Day Weather Forecast

Advertisements
Track Severe Weather on mobile